Terminal Aerodrome Forecast
Issued by NWS

Current Version | Previous Version | Text Only | Print | Product List | Glossary On
Versions: 1 2 3 4 5 6 7 8 9 10 11 12 13 14 15 16 17 18 19 20 21 22 23 24 25 26 27 28 29
000
FTUS41 KCTP 252125 AAA
TAFAOO
TAF AMD
KAOO 252125Z 2521/2618 25015G25KT P6SM SCT035 BKN050
     FM260300 29014G24KT P6SM BKN035
     FM261500 30018G32KT P6SM SCT035=

USA.gov is the U.S. government's official web portal to all federal, state and local government web resources and services.